Holon, Israel
Current Conditions -  °F | °C
As of 12:50 PM on Tuesday 21 Oct 2014 (Local Time) from LLSD Reporting Station
Few Clouds Few Clouds  
Wind Chill: 77°   Ceiling: Unl
Heat Index: 78°   Visibility: 6mi
Dew Point: 52°   Wind: 7mph
Humidity: 41%   Direction: 280°W
Pressure: 29.97"   Gusts: NA
Location:  32.02°N, 34.76°E
Report Text: LLSD 210950Z 28006KT 230V300 9999 FEW050 25/11 Q1015
Loading
Personal Weather Stations






























Interactive Weather Map
Tropical Storm Tracking
New forecast layout! Learn more

10-Day Weather Forecast

Advertisements
Track Severe Weather on mobile